• Join FlightAware (Why Join?)
  • Login
  • US Flag 
10:19PM EDT


 

Airport Tracker/Info


-or-


 

Live Flight TrackerFlight Track Log ✈ LBQ792 ✈ 03-May-2013 ✈ KIAG - KAGC

Flight Track Log - Related Links

Times and Time Zones

All times are in EDT time to prevent confusion due to time zone crossing. See the LBQ792 flight status page for this flight to view local times or setup timezone preferences in your user account.

Time Position Orientation Groundspeed Altitude Reporting Facility
EDT Latitude Longitude Course Direction KTS MPH feet Rate Location/Type
11:16PM 43.0667 -78.9167 152° Southeast 137 158 4,300  Level Buffalo TRACON
11:17PM 43.0403 -78.9244 192° South 147 169 5,100 1,320 Climbing Cleveland Center
11:18PM 42.9986 -78.9339 189° South 160 184 6,500 1,380 Climbing Cleveland Center
11:19PM 42.9550 -78.9436 189° South 160 184 7,900 1,200 Climbing Cleveland Center
11:20PM 42.9094 -78.9561 191° South 171 197 8,900 1,080 Climbing Cleveland Center
11:21PM 42.8533 -78.9633 185° South 185 213 10,100 1,320 Climbing Cleveland Center
11:22PM 42.8014 -78.9789 192° South 191 220 11,600 1,260 Climbing Cleveland Center
11:23PM 42.7453 -78.9914 189° South 196 226 12,700 1,080 Climbing Cleveland Center
11:24PM 42.6933 -79.0042 190° South 196 226 13,800 1,080 Climbing Cleveland Center
11:25PM 42.6372 -79.0197 192° South 201 231 14,900 960 Climbing Cleveland Center
11:26PM 42.5792 -79.0322 189° South 201 231 15,800 900 Climbing Cleveland Center
11:27PM 42.5208 -79.0450 189° South 206 237 16,700 840 Climbing Cleveland Center
11:28PM 42.4606 -79.0578 189° South 212 244 17,500 660 Climbing Cleveland Center
11:29PM 42.3961 -79.0761 192° South 227 261 18,100 660 Climbing Cleveland Center
11:30PM 42.3358 -79.0889 189° South 227 261 18,900 720 Climbing Cleveland Center
11:31PM 42.2756 -79.1014 189° South 227 261 19,600 540 Climbing Cleveland Center
11:32PM 42.2133 -79.1197 192° South 222 255 20,000 180 Climbing Cleveland Center
11:33PM 42.1489 -79.1381 192° South 233 268 20,000  Level Cleveland Center
11:34PM 42.0806 -79.1619 195° South 247 284 20,000  Level Cleveland Center
11:35PM 42.0119 -79.1886 196° South 252 290 20,000  Level Cleveland Center
11:36PM 41.9414 -79.2125 194° South 262 302 20,000  Level Cleveland Center
11:37PM 41.8833 -79.2361 197° South 256 295 20,000  Level Cleveland Center
11:38PM 41.8128 -79.2600 194° South 262 302 20,000  Level Cleveland Center
11:39PM 41.7358 -79.2892 196° South 262 302 20,000  Level Cleveland Center
11:40PM 41.6653 -79.3131 194° South 262 302 20,000  Level Cleveland Center
11:41PM 41.5989 -79.3392 196° South 262 302 20,000  Level Cleveland Center
11:42PM 41.5303 -79.3656 196° South 262 302 20,000  Level Cleveland Center
11:43PM 41.4661 -79.3889 195° South 262 302 20,000 -480 Level Cleveland Center
11:44PM 41.3869 -79.4153 194° South 262 302 19,100 -960 Descending Cleveland Center
11:45PM 41.3103 -79.4442 196° South 267 307 18,100 -840 Descending Cleveland Center
11:46PM 41.2314 -79.4733 196° South 279 321 17,500 -840 Descending Cleveland Center
11:47PM 41.1567 -79.5103 200° South 290 334 16,500 -1,200 Descending Cleveland Center
11:48PM 41.0800 -79.5583 205° Southwest 300 345 15,200 -1,260 Descending Cleveland Center
11:49PM 41.0075 -79.6092 208° Southwest 300 345 14,000 -1,260 Descending Cleveland Center
11:50PM 40.9369 -79.6622 210° Southwest 300 345 12,700 -1,320 Descending Cleveland Center
11:51PM 40.8686 -79.7128 209° Southwest 290 334 11,400 -1,260 Descending Cleveland Center
11:52PM 40.8000 -79.7467 201° Southwest 284 327 10,200 -1,020 Descending Cleveland Center
11:53PM 40.7336 -79.7775 199° South 272 313 9,400 -1,200 Descending Cleveland Center
11:54PM 40.6650 -79.8058 197° South 267 307 7,900 -1,500 Descending Cleveland Center
11:55PM 40.5964 -79.8311 196° South 267 307 6,400 -1,500 Descending Cleveland Center
11:56PM 40.5339 -79.8592 199° South 256 295 5,000 -1,380 Descending Cleveland Center
11:57PM 40.4736 -79.8897 201° Southwest 245 282 3,700 -1,320 Descending Cleveland Center
11:58PM 40.4123 -79.9075 189° South  Level FlightAware Approximate
12:05AM 40.3500 -79.9167 180° South  Level FlightAware Approximate
12:06AM 40.3544 -79.9302 180° South  Level Estimated
12:07AM 40.3544 -79.9302 180° South  Level Estimated
12:08AM 40.3544 -79.9302 180° South  Level Estimated